Time;durP1;ratioP1;P1;durP2;ratioP2;P2;SDS_P1;SDS_P2;PMS_P1;PMS_P2;Temp;Humidity;BMP_temperature;BMP_pressure;BME280_temperature;BME280_humidity;BME280_pressure;Samples;Min_cycle;Max_cycle;Signal;HPM_P1;HPM_P2
2021/10/27 00:01:01;;;;;;;27.90;18.08;;;8.60;99.90;;;;;;5041096;28;20204;-49
2021/10/27 00:03:29;;;;;;;26.27;17.38;;;8.60;99.90;;;;;;5042133;28;20281;-54
2021/10/27 00:05:56;;;;;;;30.77;18.90;;;8.50;99.90;;;;;;5041146;28;20201;-52
2021/10/27 00:08:23;;;;;;;25.83;18.50;;;8.60;99.90;;;;;;5034672;28;20241;-52
2021/10/27 00:10:51;;;;;;;29.55;18.73;;;8.60;99.90;;;;;;5040580;28;20239;-49
2021/10/27 00:13:18;;;;;;;30.33;18.88;;;8.70;99.90;;;;;;5041481;28;20200;-48
2021/10/27 00:15:46;;;;;;;25.20;17.80;;;8.60;99.90;;;;;;5040037;28;20507;-50
2021/10/27 00:18:14;;;;;;;32.35;19.48;;;8.50;99.90;;;;;;5040748;28;20208;-46
2021/10/27 00:20:41;;;;;;;30.88;19.25;;;8.50;99.90;;;;;;5041397;28;20250;-47
2021/10/27 00:23:09;;;;;;;25.80;18.67;;;8.60;99.90;;;;;;5039115;28;20255;-52
2021/10/27 00:25:37;;;;;;;23.70;19.17;;;8.50;99.90;;;;;;5040983;28;20269;-47
2021/10/27 00:28:04;;;;;;;25.35;19.13;;;8.40;99.90;;;;;;5041961;28;20227;-50
2021/10/27 00:30:31;;;;;;;30.77;18.42;;;8.50;99.90;;;;;;5052169;28;20446;-50
2021/10/27 00:32:58;;;;;;;32.20;20.00;;;8.50;99.90;;;;;;5040859;28;20201;-46
2021/10/27 00:35:27;;;;;;;25.05;20.23;;;8.50;99.90;;;;;;5041593;28;20459;-46
2021/10/27 00:37:54;;;;;;;33.95;22.17;;;8.40;99.90;;;;;;5041101;28;20285;-49
2021/10/27 00:40:21;;;;;;;29.02;19.98;;;8.40;99.90;;;;;;5048331;22;20352;-54
2021/10/27 00:42:49;;;;;;;30.33;20.40;;;8.30;99.90;;;;;;5012278;28;20247;-52
2021/10/27 00:45:17;;;;;;;28.25;20.13;;;8.20;99.90;;;;;;5017477;28;20298;-51
2021/10/27 00:47:44;;;;;;;23.38;17.13;;;8.10;99.90;;;;;;5015359;28;20260;-51
2021/10/27 00:50:11;;;;;;;24.85;17.63;;;8.00;99.90;;;;;;5020804;28;20220;-54
2021/10/27 00:52:38;;;;;;;29.77;18.92;;;8.00;99.90;;;;;;5034941;28;20209;-55
2021/10/27 00:55:06;;;;;;;31.63;18.55;;;8.00;99.90;;;;;;5031111;28;20246;-50
2021/10/27 00:57:36;;;;;;;30.05;20.77;;;8.00;99.90;;;;;;5037651;28;20367;-52
2021/10/27 01:00:05;;;;;;;24.48;19.05;;;8.00;99.90;;;;;;5036688;28;20232;-54
2021/10/27 01:02:33;;;;;;;22.58;17.67;;;8.20;99.90;;;;;;5028996;28;20212;-51
2021/10/27 01:05:00;;;;;;;29.38;19.40;;;8.20;99.90;;;;;;5031620;28;20216;-51
2021/10/27 01:07:27;;;;;;;29.30;20.23;;;8.20;99.90;;;;;;5028269;28;20229;-54
2021/10/27 01:09:55;;;;;;;22.48;17.02;;;8.20;99.90;;;;;;5032949;28;20312;-52
2021/10/27 01:12:22;;;;;;;25.63;20.13;;;8.10;99.90;;;;;;5033835;28;20471;-53
2021/10/27 01:14:49;;;;;;;29.73;20.10;;;8.20;99.90;;;;;;5032871;28;20201;-52
2021/10/27 01:17:18;;;;;;;27.65;17.45;;;8.20;99.90;;;;;;5037571;28;20242;-55
2021/10/27 01:19:53;;;;;;;25.67;18.40;;;8.20;99.90;;;;;;5034398;28;20546;-52
2021/10/27 01:22:26;;;;;;;24.95;18.73;;;8.30;99.90;;;;;;5026866;28;20419;-51
2021/10/27 01:24:54;;;;;;;27.15;16.92;;;8.20;99.90;;;;;;5033796;28;20204;-53
2021/10/27 01:27:23;;;;;;;23.98;17.13;;;8.20;99.90;;;;;;5038259;28;20228;-52
2021/10/27 01:29:51;;;;;;;27.58;18.63;;;8.10;99.90;;;;;;5020894;28;20225;-53
2021/10/27 01:32:29;;;;;;;24.27;18.55;;;8.10;99.90;;;;;;5035289;28;20330;-53
2021/10/27 01:34:56;;;;;;;25.55;17.70;;;8.20;99.90;;;;;;5037381;28;20325;-56
2021/10/27 01:37:25;;;;;;;23.63;18.15;;;8.20;99.90;;;;;;5034935;28;20204;-50
2021/10/27 01:39:53;;;;;;;24.50;17.42;;;8.00;99.90;;;;;;5030953;28;20296;-52
2021/10/27 01:42:21;;;;;;;20.75;16.90;;;7.90;99.90;;;;;;5029866;28;20247;-53
2021/10/27 01:44:48;;;;;;;30.73;19.85;;;7.70;99.90;;;;;;5040008;28;20487;-53
2021/10/27 01:47:16;;;;;;;24.75;17.50;;;7.60;99.90;;;;;;5037227;28;20225;-53
2021/10/27 01:49:43;;;;;;;22.95;17.33;;;7.80;99.90;;;;;;5025857;28;20283;-56
2021/10/27 01:52:10;;;;;;;28.50;20.15;;;7.70;99.90;;;;;;5033162;28;20197;-53
2021/10/27 01:54:39;;;;;;;24.27;17.70;;;7.80;99.90;;;;;;5039744;28;20204;-56
2021/10/27 01:57:08;;;;;;;30.95;19.85;;;7.80;99.90;;;;;;5027618;28;20200;-53
2021/10/27 01:59:35;;;;;;;30.58;19.08;;;7.60;99.90;;;;;;5033630;28;20223;-51
2021/10/27 02:02:03;;;;;;;27.98;19.52;;;7.70;99.90;;;;;;5024991;28;20242;-54
2021/10/27 02:04:32;;;;;;;24.33;18.17;;;7.50;99.90;;;;;;5027822;28;20201;-51
2021/10/27 02:07:00;;;;;;;24.80;19.42;;;7.50;99.90;;;;;;5025010;28;20235;-50
2021/10/27 02:09:29;;;;;;;23.75;18.63;;;7.50;99.90;;;;;;5039828;28;20246;-52
2021/10/27 02:11:57;;;;;;;26.13;20.38;;;7.70;99.90;;;;;;5039185;28;20250;-53
2021/10/27 02:14:23;;;;;;;25.13;17.77;;;7.50;99.90;;;;;;5029373;28;20239;-52
2021/10/27 02:16:51;;;;;;;28.85;17.95;;;7.70;99.90;;;;;;5030322;28;20205;-54
2021/10/27 02:19:18;;;;;;;28.50;19.27;;;7.60;99.90;;;;;;5036200;28;20239;-51
2021/10/27 02:21:46;;;;;;;27.80;21.02;;;7.80;99.90;;;;;;5034948;28;20208;-54
2021/10/27 02:24:13;;;;;;;26.38;20.60;;;7.80;99.90;;;;;;5024794;28;20207;-50
2021/10/27 02:26:40;;;;;;;26.08;19.77;;;7.80;99.90;;;;;;5033041;28;20242;-52
2021/10/27 02:29:07;;;;;;;30.92;19.15;;;7.70;99.90;;;;;;5026080;28;20466;-56
2021/10/27 02:31:35;;;;;;;25.58;18.70;;;7.60;99.90;;;;;;5037285;28;20597;-47
2021/10/27 02:34:02;;;;;;;31.05;19.52;;;7.40;99.90;;;;;;5035160;28;20231;-51
2021/10/27 02:36:29;;;;;;;32.67;19.77;;;7.50;99.90;;;;;;5029527;28;20254;-54
2021/10/27 02:38:56;;;;;;;23.73;17.55;;;7.50;99.90;;;;;;5039226;28;20207;-51
2021/10/27 02:41:23;;;;;;;29.42;18.30;;;7.50;99.90;;;;;;5037172;28;20278;-50
2021/10/27 02:43:51;;;;;;;28.98;18.10;;;7.60;99.90;;;;;;5034865;28;20204;-54
2021/10/27 02:46:18;;;;;;;33.28;20.58;;;7.70;99.90;;;;;;5036744;28;20208;-50
2021/10/27 02:48:46;;;;;;;30.67;17.33;;;7.60;99.90;;;;;;5038062;28;20278;-52
2021/10/27 02:51:14;;;;;;;22.25;17.30;;;7.40;99.90;;;;;;5040175;28;20242;-53
2021/10/27 02:53:41;;;;;;;28.35;17.60;;;7.40;99.90;;;;;;5033496;28;20276;-51
2021/10/27 02:56:08;;;;;;;29.58;18.40;;;7.50;99.90;;;;;;5037084;28;20200;-52
2021/10/27 02:58:35;;;;;;;30.70;18.42;;;7.50;99.90;;;;;;5031476;28;20207;-58
2021/10/27 03:01:03;;;;;;;28.45;17.15;;;7.50;99.90;;;;;;5037910;28;20281;-55
2021/10/27 03:03:31;;;;;;;26.67;17.38;;;7.40;99.90;;;;;;5038269;28;20211;-55
2021/10/27 03:05:58;;;;;;;25.33;16.33;;;7.50;99.90;;;;;;5041510;28;20201;-55
2021/10/27 03:08:26;;;;;;;22.17;16.70;;;7.60;99.90;;;;;;5035264;28;20220;-56
2021/10/27 03:10:53;;;;;;;23.63;15.68;;;7.70;99.90;;;;;;5033578;28;20224;-53
2021/10/27 03:13:20;;;;;;;23.83;16.60;;;7.40;99.90;;;;;;5034681;28;20255;-54
2021/10/27 03:15:49;;;;;;;23.88;17.40;;;7.30;99.90;;;;;;5032247;28;20209;-52
2021/10/27 03:18:16;;;;;;;27.60;17.23;;;7.40;99.90;;;;;;5033234;28;20496;-52
2021/10/27 03:20:43;;;;;;;27.98;16.90;;;7.40;99.90;;;;;;5034027;28;20271;-53
2021/10/27 03:23:11;;;;;;;25.80;17.42;;;7.50;99.90;;;;;;5026336;28;20205;-52
2021/10/27 03:25:38;;;;;;;26.05;17.45;;;7.60;99.90;;;;;;5027863;28;20251;-52
2021/10/27 03:28:05;;;;;;;27.88;18.85;;;7.80;99.90;;;;;;5041745;28;20593;-51
2021/10/27 03:30:32;;;;;;;21.65;16.42;;;7.80;99.90;;;;;;5032375;28;20243;-51
2021/10/27 03:33:00;;;;;;;27.55;19.67;;;7.90;99.90;;;;;;5033548;28;20380;-55
2021/10/27 03:35:27;;;;;;;26.38;18.40;;;8.00;99.90;;;;;;5037524;28;20200;-52
2021/10/27 03:37:54;;;;;;;23.33;19.13;;;8.00;99.90;;;;;;5033106;28;20200;-50
2021/10/27 03:40:21;;;;;;;31.75;21.08;;;8.10;99.90;;;;;;5040577;28;20235;-51
2021/10/27 03:42:49;;;;;;;40.20;26.15;;;8.00;99.90;;;;;;5026947;28;20248;-51
2021/10/27 03:45:16;;;;;;;39.47;26.75;;;8.10;99.90;;;;;;5034591;28;20204;-51
2021/10/27 03:47:43;;;;;;;36.63;22.40;;;8.00;99.90;;;;;;5042033;28;20422;-53
2021/10/27 03:50:14;;;;;;;32.92;19.15;;;7.90;99.90;;;;;;5030284;28;20216;-56
2021/10/27 03:52:42;;;;;;;35.88;20.05;;;7.80;99.90;;;;;;5028796;28;20201;-52
2021/10/27 03:55:10;;;;;;;28.90;19.23;;;7.80;99.90;;;;;;5039582;28;20208;-54
2021/10/27 03:57:38;;;;;;;24.75;17.80;;;7.70;99.90;;;;;;5034419;28;20514;-54
2021/10/27 04:00:07;;;;;;;26.95;19.00;;;7.80;99.90;;;;;;5028004;28;20270;-49
2021/10/27 04:02:38;;;;;;;24.58;17.25;;;7.70;99.90;;;;;;5031581;28;20239;-53
2021/10/27 04:05:06;;;;;;;23.00;16.40;;;7.70;99.90;;;;;;5039508;28;20211;-52
2021/10/27 04:07:36;;;;;;;27.15;18.77;;;7.60;99.90;;;;;;5036968;28;20570;-54
2021/10/27 04:10:08;;;;;;;22.13;16.95;;;7.40;99.90;;;;;;5039508;28;20406;-52
2021/10/27 04:12:37;;;;;;;29.90;18.13;;;7.40;99.90;;;;;;5033645;28;20271;-54
2021/10/27 04:15:07;;;;;;;23.55;17.70;;;7.00;99.90;;;;;;5027792;28;20261;-53
2021/10/27 04:17:35;;;;;;;29.30;19.05;;;6.90;99.90;;;;;;5041358;28;20240;-53
2021/10/27 04:20:07;;;;;;;22.63;18.55;;;6.90;99.90;;;;;;5033713;28;20289;-56
2021/10/27 04:22:37;;;;;;;21.05;17.05;;;7.00;99.90;;;;;;5031728;28;20200;-50
2021/10/27 04:25:10;;;;;;;28.88;19.70;;;7.00;99.90;;;;;;5034213;28;20200;-53
2021/10/27 04:27:37;;;;;;;25.30;17.63;;;7.10;99.90;;;;;;5041689;28;20204;-53
2021/10/27 04:30:07;;;;;;;26.48;17.10;;;7.20;99.90;;;;;;5032958;28;20223;-54
2021/10/27 04:32:35;;;;;;;24.08;16.63;;;7.10;99.90;;;;;;5036454;28;20204;-52
2021/10/27 04:35:04;;;;;;;23.92;16.23;;;7.10;99.90;;;;;;5035617;28;20247;-52
2021/10/27 04:37:35;;;;;;;27.45;16.75;;;7.00;99.90;;;;;;5039844;28;20223;-53
2021/10/27 04:40:05;;;;;;;33.15;17.25;;;7.10;99.90;;;;;;5040428;28;20235;-55
2021/10/27 04:42:32;;;;;;;25.35;17.05;;;6.80;99.90;;;;;;5028341;28;20246;-52
2021/10/27 04:44:59;;;;;;;30.60;16.73;;;6.80;99.90;;;;;;5031946;28;20200;-54
2021/10/27 04:47:26;;;;;;;28.70;18.40;;;6.90;99.90;;;;;;5027501;28;20240;-50
2021/10/27 04:49:54;;;;;;;28.83;20.42;;;7.00;99.90;;;;;;5037837;28;20228;-55
2021/10/27 04:52:21;;;;;;;23.83;16.88;;;7.00;99.90;;;;;;5032077;28;20209;-54
2021/10/27 04:54:49;;;;;;;25.38;17.00;;;6.90;99.90;;;;;;5038244;28;20197;-52
2021/10/27 04:57:16;;;;;;;30.23;19.52;;;7.00;99.90;;;;;;5036205;28;20435;-53
2021/10/27 04:59:44;;;;;;;29.88;19.60;;;7.10;99.90;;;;;;5041178;28;20224;-53
2021/10/27 05:02:15;;;;;;;25.63;17.13;;;7.00;99.90;;;;;;5029366;28;20411;-53
2021/10/27 05:04:44;;;;;;;27.25;19.60;;;6.90;99.90;;;;;;5040060;28;20275;-51
2021/10/27 05:07:15;;;;;;;25.25;19.65;;;6.80;99.90;;;;;;5037921;28;20503;-51
2021/10/27 05:09:42;;;;;;;22.52;16.88;;;7.00;99.90;;;;;;5034245;28;20414;-52
2021/10/27 05:12:11;;;;;;;25.05;18.25;;;6.90;99.90;;;;;;5028527;28;20219;-53
2021/10/27 05:14:41;;;;;;;27.45;17.50;;;6.90;99.90;;;;;;5027028;28;20439;-52
2021/10/27 05:17:11;;;;;;;24.55;17.08;;;7.10;99.90;;;;;;5039256;28;20471;-52
2021/10/27 05:19:40;;;;;;;28.38;18.00;;;7.20;99.90;;;;;;5034395;28;20228;-53
2021/10/27 05:22:08;;;;;;;20.50;15.50;;;7.30;99.90;;;;;;5035477;28;20474;-54
2021/10/27 05:24:36;;;;;;;26.77;18.73;;;7.30;99.90;;;;;;5033334;28;20263;-55
2021/10/27 05:27:04;;;;;;;26.98;18.00;;;7.40;99.90;;;;;;5024616;28;20202;-53
2021/10/27 05:29:32;;;;;;;23.75;18.55;;;7.40;99.90;;;;;;5033742;28;20228;-51
2021/10/27 05:31:59;;;;;;;23.33;17.55;;;7.40;99.90;;;;;;5033517;28;20196;-52
2021/10/27 05:34:26;;;;;;;35.38;17.77;;;7.40;99.90;;;;;;5036208;28;20220;-54
2021/10/27 05:36:54;;;;;;;30.88;17.80;;;7.30;99.90;;;;;;5040121;28;20594;-58
2021/10/27 05:39:21;;;;;;;28.63;20.55;;;7.40;99.90;;;;;;5038216;28;20208;-50
2021/10/27 05:41:49;;;;;;;29.10;17.05;;;7.40;99.90;;;;;;5039997;28;20463;-49
2021/10/27 05:44:18;;;;;;;30.30;17.27;;;7.40;99.90;;;;;;5029636;28;20248;-51
2021/10/27 05:46:48;;;;;;;24.15;15.73;;;7.20;99.90;;;;;;5033177;28;20498;-52
2021/10/27 05:55:04;;;;;;;27.55;18.33;;;7.20;99.90;;;;;;5025619;28;20227;-51
2021/10/27 05:57:36;;;;;;;27.77;19.85;;;7.30;99.90;;;;;;5036467;28;20239;-52
2021/10/27 06:00:05;;;;;;;31.85;21.92;;;7.20;99.90;;;;;;5038265;28;20219;-53
2021/10/27 06:02:32;;;;;;;33.20;22.50;;;7.30;99.90;;;;;;5027607;28;20244;-52
2021/10/27 06:05:00;;;;;;;30.23;20.23;;;7.30;99.90;;;;;;5032421;28;20254;-52
2021/10/27 06:07:27;;;;;;;44.53;24.95;;;7.30;99.90;;;;;;5032786;28;20242;-56
2021/10/27 06:09:55;;;;;;;30.15;21.35;;;7.50;99.90;;;;;;5034247;28;20455;-49
2021/10/27 06:12:22;;;;;;;28.17;20.42;;;7.60;99.90;;;;;;5030185;28;20204;-51
2021/10/27 06:14:50;;;;;;;25.42;18.73;;;7.50;99.90;;;;;;5039850;28;20192;-53
2021/10/27 06:17:17;;;;;;;27.25;18.73;;;7.60;99.90;;;;;;5025340;28;20201;-52
2021/10/27 06:19:47;;;;;;;25.75;19.13;;;7.80;99.90;;;;;;5032636;28;20277;-52
2021/10/27 06:22:14;;;;;;;25.63;17.67;;;7.80;99.90;;;;;;5038953;28;20212;-52
2021/10/27 06:24:41;;;;;;;30.45;19.25;;;7.80;99.90;;;;;;5033475;28;20204;-51
2021/10/27 06:27:10;;;;;;;25.10;17.52;;;8.00;99.90;;;;;;5038074;28;20215;-52
2021/10/27 06:29:45;;;;;;;28.80;17.17;;;8.20;99.90;;;;;;5033588;28;20271;-54
2021/10/27 06:34:52;;;;;;;24.80;18.35;;;8.60;99.90;;;;;;5040092;28;20219;-53
2021/10/27 06:48:27;;;;;;;27.65;17.20;;;8.90;99.90;;;;;;5022078;28;20208;-51
2021/10/27 06:51:14;;;;;;;18.05;14.30;;;8.90;99.90;;;;;;5034572;28;20495;-51
2021/10/27 06:53:42;;;;;;;20.38;15.23;;;9.00;99.90;;;;;;5032764;28;20496;-53
2021/10/27 06:56:13;;;;;;;20.85;14.20;;;9.10;99.90;;;;;;5031270;28;20221;-62
2021/10/27 06:58:45;;;;;;;24.42;15.15;;;9.00;99.90;;;;;;5026762;28;20430;-45
2021/10/27 07:01:20;;;;;;;27.15;15.63;;;9.10;99.90;;;;;;5028907;28;20594;-53
2021/10/27 07:06:42;;;;;;;15.88;13.48;;;9.60;99.90;;;;;;5031026;28;20260;-53
2021/10/27 07:17:17;;;;;;;16.40;13.23;;;10.60;99.90;;;;;;5031809;28;20224;-53
2021/10/27 07:19:44;;;;;;;19.33;12.50;;;11.00;99.90;;;;;;5029112;28;20573;-57
2021/10/27 07:22:13;;;;;;;19.88;15.60;;;11.30;99.90;;;;;;5038423;28;20218;-53
2021/10/27 07:24:44;;;;;;;18.63;13.40;;;11.70;99.90;;;;;;5051738;28;20207;-57
2021/10/27 07:27:12;;;;;;;15.93;12.57;;;12.50;99.90;;;;;;5037687;28;20204;-58
2021/10/27 07:29:43;;;;;;;15.93;11.60;;;13.40;99.90;;;;;;5045041;28;20245;-57
2021/10/27 07:32:12;;;;;;;14.10;12.27;;;14.30;99.90;;;;;;5045385;28;20196;-57
2021/10/27 07:34:48;;;;;;;13.35;10.55;;;15.10;99.90;;;;;;5038702;28;20247;-57
2021/10/27 07:40:46;;;;;;;14.97;13.23;;;16.50;99.90;;;;;;5035878;28;20240;-56
2021/10/27 07:43:12;;;;;;;13.73;10.50;;;17.20;99.90;;;;;;5033684;28;20416;-54
2021/10/27 07:45:40;;;;;;;13.37;11.13;;;17.80;99.90;;;;;;5042929;28;20427;-53
2021/10/27 07:48:08;;;;;;;12.77;9.30;;;18.00;99.90;;;;;;5033598;28;20416;-55
2021/10/27 07:50:37;;;;;;;14.23;11.10;;;18.30;99.90;;;;;;5042199;28;20680;-51
2021/10/27 07:53:07;;;;;;;12.70;10.97;;;18.10;99.90;;;;;;5035488;28;20410;-50
2021/10/27 07:55:37;;;;;;;12.63;10.70;;;18.20;99.90;;;;;;5042637;28;20461;-53
2021/10/27 07:58:05;;;;;;;16.70;12.27;;;18.40;99.90;;;;;;5042031;28;20433;-55
2021/10/27 08:00:32;;;;;;;15.87;10.30;;;18.20;99.90;;;;;;5034047;28;20627;-52
2021/10/27 08:03:03;;;;;;;12.90;10.83;;;18.50;99.90;;;;;;5035858;28;20456;-56
2021/10/27 08:05:40;;;;;;;13.93;9.80;;;18.70;99.90;;;;;;5029625;28;20416;-56
2021/10/27 08:08:09;;;;;;;12.70;9.40;;;19.10;99.90;;;;;;5039637;28;20487;-52
2021/10/27 08:10:37;;;;;;;12.03;9.53;;;19.10;99.90;;;;;;5042176;28;20505;-54
2021/10/27 08:13:05;;;;;;;11.53;9.83;;;19.20;99.90;;;;;;5036789;28;20418;-58
2021/10/27 08:15:33;;;;;;;10.20;9.20;;;19.00;99.90;;;;;;5027400;28;20447;-55
2021/10/27 08:18:01;;;;;;;15.30;10.73;;;19.10;99.90;;;;;;5041874;28;20462;-54
2021/10/27 08:20:29;;;;;;;11.20;10.10;;;19.00;99.90;;;;;;5032428;28;20743;-54
2021/10/27 08:23:01;;;;;;;11.60;10.40;;;19.50;99.90;;;;;;5026654;28;20474;-56
2021/10/27 08:25:32;;;;;;;13.23;9.23;;;19.80;99.90;;;;;;5038635;28;20440;-52
2021/10/27 08:28:07;;;;;;;17.73;10.30;;;19.90;99.90;;;;;;5025057;28;20624;-52
2021/10/27 08:30:41;;;;;;;14.63;8.83;;;19.90;99.90;;;;;;5035210;28;20527;-54
2021/10/27 08:33:19;;;;;;;11.27;7.80;;;20.00;99.90;;;;;;5040318;28;20407;-53
2021/10/27 08:35:47;;;;;;;7.63;6.93;;;19.20;99.90;;;;;;5027644;28;20446;-52
2021/10/27 08:38:15;;;;;;;13.93;8.13;;;18.60;99.90;;;;;;5031888;28;20484;-53
2021/10/27 08:40:49;;;;;;;11.17;9.27;;;18.40;99.90;;;;;;5041209;28;20451;-51
2021/10/27 08:43:17;;;;;;;8.93;7.37;;;18.20;99.90;;;;;;5027615;28;20419;-53
2021/10/27 08:45:44;;;;;;;10.60;8.43;;;18.10;99.90;;;;;;5024890;28;20458;-51
2021/10/27 08:48:14;;;;;;;19.17;17.40;;;18.20;99.90;;;;;;5027996;28;20437;-54
2021/10/27 08:50:43;;;;;;;17.30;9.83;;;18.20;99.90;;;;;;5031952;28;20463;-57
2021/10/27 08:53:15;;;;;;;13.10;8.67;;;18.50;99.90;;;;;;5033796;28;20697;-51
2021/10/27 08:55:45;;;;;;;9.80;8.63;;;18.70;99.90;;;;;;5034135;28;20470;-55
2021/10/27 08:58:17;;;;;;;12.87;9.53;;;18.60;99.90;;;;;;5034711;28;20474;-52
2021/10/27 09:00:51;;;;;;;9.07;8.17;;;18.30;99.90;;;;;;5031080;28;20505;-55
2021/10/27 09:03:38;;;;;;;12.03;8.63;;;18.10;99.90;;;;;;5040773;28;20438;-56
2021/10/27 09:06:28;;;;;;;9.17;7.77;;;18.00;99.90;;;;;;5030799;28;20415;-54
2021/10/27 09:44:15;;;;;;;8.37;7.47;;;15.70;99.90;;;;;;5011960;28;20257;-45
2021/10/27 10:06:47;;;;;;;8.37;6.70;;;16.10;99.90;;;;;;5003620;28;20506;-48
2021/10/27 10:09:19;;;;;;;10.73;7.83;;;16.20;99.90;;;;;;5016316;28;20416;-49
2021/10/27 10:11:49;;;;;;;6.90;6.20;;;16.40;99.90;;;;;;5021986;28;20477;-51
2021/10/27 10:14:18;;;;;;;8.20;6.47;;;16.60;99.90;;;;;;5012219;28;20461;-47
2021/10/27 10:16:51;;;;;;;7.77;6.73;;;16.70;99.90;;;;;;5012259;28;20936;-50
2021/10/27 10:19:32;;;;;;;10.03;6.57;;;16.70;99.90;;;;;;5003392;28;20464;-53
2021/10/27 10:21:59;;;;;;;9.20;5.83;;;16.70;99.90;;;;;;5011718;28;20458;-48
2021/10/27 10:24:34;;;;;;;7.73;6.63;;;16.70;99.90;;;;;;5012372;28;20697;-52
2021/10/27 10:27:07;;;;;;;7.83;5.80;;;16.80;99.90;;;;;;5006947;28;20452;-50
2021/10/27 10:29:35;;;;;;;7.13;5.80;;;16.80;99.90;;;;;;5013117;28;20829;-52
2021/10/27 10:32:24;;;;;;;6.57;5.23;;;16.90;99.90;;;;;;5009265;28;20700;-50
2021/10/27 10:35:10;;;;;;;5.67;5.10;;;16.90;99.90;;;;;;5007619;28;20416;-51
2021/10/27 10:38:04;;;;;;;7.70;4.30;;;17.00;99.90;;;;;;5006319;28;20580;-47
2021/10/27 10:55:29;;;;;;;5.50;5.00;;;16.90;99.90;;;;;;5015745;28;20427;-51
2021/10/27 10:57:54;;;;;;;9.57;6.07;;;17.00;99.90;;;;;;5017847;28;20626;-45
2021/10/27 11:40:14;;;;;;;6.70;5.40;;;16.60;99.90;;;;;;5016917;28;20621;-46
2021/10/27 11:42:51;;;;;;;8.70;5.73;;;16.40;99.90;;;;;;5009692;28;20685;-50
2021/10/27 11:45:53;;;;;;;8.87;5.67;;;16.50;99.90;;;;;;5012174;28;20456;-49
2021/10/27 11:50:44;;;;;;;8.73;5.70;;;16.70;99.90;;;;;;5016037;28;20480;-54
2021/10/27 11:53:24;;;;;;;9.40;5.10;;;16.50;99.90;;;;;;5014084;28;20464;-51
2021/10/27 11:55:53;;;;;;;8.30;5.50;;;16.70;99.90;;;;;;5019693;28;20529;-47
2021/10/27 11:58:23;;;;;;;7.90;5.43;;;16.70;99.90;;;;;;5009082;28;20411;-51
2021/10/27 12:01:00;;;;;;;8.90;6.50;;;16.70;99.90;;;;;;5012858;28;20449;-47
2021/10/27 12:03:36;;;;;;;7.77;6.23;;;16.70;99.90;;;;;;5009577;28;20465;-49
2021/10/27 12:06:18;;;;;;;6.80;4.70;;;16.70;99.90;;;;;;5013543;28;20464;-54
2021/10/27 12:14:20;;;;;;;6.50;4.67;;;16.50;99.90;;;;;;5018765;28;20519;-51
2021/10/27 12:19:21;;;;;;;7.10;5.50;;;16.50;99.90;;;;;;5013128;28;20803;-51
2021/10/27 12:21:50;;;;;;;5.27;4.67;;;16.60;99.90;;;;;;5013905;28;20423;-47
2021/10/27 12:24:21;;;;;;;14.33;6.87;;;16.70;99.90;;;;;;5007764;28;20643;-46
2021/10/27 12:27:02;;;;;;;8.13;5.07;;;16.60;99.90;;;;;;5017278;28;21340;-52
2021/10/27 12:29:36;;;;;;;6.77;5.43;;;16.60;99.90;;;;;;5001331;28;20413;-48
2021/10/27 12:32:14;;;;;;;7.67;5.30;;;16.60;99.90;;;;;;5016749;28;20408;-46
2021/10/27 12:34:47;;;;;;;8.40;5.37;;;16.50;99.90;;;;;;5016261;28;20746;-50
2021/10/27 12:40:21;;;;;;;5.60;5.00;;;16.60;99.90;;;;;;5016353;28;20573;-48
2021/10/27 12:43:25;;;;;;;7.20;5.57;;;16.60;99.90;;;;;;5011723;28;20466;-48
2021/10/27 12:45:56;;;;;;;9.90;4.97;;;16.60;99.90;;;;;;5009119;28;20515;-50
2021/10/27 12:48:34;;;;;;;5.80;4.30;;;16.40;99.90;;;;;;5005860;28;20484;-49
2021/10/27 12:51:06;;;;;;;6.40;4.80;;;16.30;99.90;;;;;;5005328;28;20814;-47
2021/10/27 12:53:39;;;;;;;7.53;5.70;;;16.20;99.90;;;;;;5010207;28;20456;-51
2021/10/27 12:56:08;;;;;;;6.50;5.47;;;16.40;99.90;;;;;;5001297;28;20464;-50
2021/10/27 12:58:41;;;;;;;7.80;5.33;;;16.40;99.90;;;;;;5001775;28;20461;-49
2021/10/27 13:06:42;;;;;;;8.83;5.80;;;16.20;99.90;;;;;;5001212;28;20642;-51
2021/10/27 13:09:22;;;;;;;9.17;6.20;;;16.20;99.90;;;;;;5017413;28;20641;-46
2021/10/27 13:30:47;;;;;;;7.57;5.80;;;15.70;99.90;;;;;;4984526;28;20455;-49
2021/10/27 13:33:17;;;;;;;11.30;7.07;;;15.70;99.90;;;;;;5001585;28;20231;-47
2021/10/27 13:35:44;;;;;;;8.80;6.50;;;15.70;99.90;;;;;;5000317;28;20527;-46
2021/10/27 13:38:14;;;;;;;7.78;5.40;;;15.70;99.90;;;;;;5001340;28;20622;-47
2021/10/27 13:40:43;;;;;;;11.07;7.00;;;15.60;99.90;;;;;;5000132;28;20394;-48
2021/10/27 14:07:31;;;;;;;4.70;4.30;;;15.20;99.90;;;;;;5000613;28;20232;-49
2021/10/27 14:10:07;;;;;;;9.18;6.75;;;15.10;99.90;;;;;;4979373;28;20201;-47
2021/10/27 14:48:09;;;;;;;12.88;7.10;;;14.80;99.90;;;;;;5014226;28;20248;-51
2021/10/27 15:20:47;;;;;;;13.85;9.68;;;14.30;99.90;;;;;;5005929;28;20510;-49
2021/10/27 15:52:08;;;;;;;15.07;10.60;;;13.30;99.90;;;;;;5023529;28;20298;-52
2021/10/27 15:54:35;;;;;;;20.50;12.52;;;13.10;99.90;;;;;;5032509;28;20204;-53
2021/10/27 15:57:03;;;;;;;18.50;11.25;;;13.20;99.90;;;;;;5027272;28;20216;-51
2021/10/27 15:59:31;;;;;;;27.80;12.10;;;13.00;99.90;;;;;;5029249;28;20248;-54
2021/10/27 16:01:58;;;;;;;14.13;10.93;;;12.80;99.90;;;;;;5023984;28;20232;-53
2021/10/27 16:04:25;;;;;;;13.15;10.60;;;12.50;99.90;;;;;;5021494;28;20200;-49
2021/10/27 16:06:55;;;;;;;14.15;11.10;;;12.50;99.90;;;;;;5013241;28;20221;-55
2021/10/27 16:09:30;;;;;;;16.73;12.77;;;12.30;99.90;;;;;;5029524;28;20381;-51
2021/10/27 16:12:17;;;;;;;18.55;11.35;;;12.20;99.90;;;;;;5023199;28;20458;-55
2021/10/27 16:14:46;;;;;;;18.00;11.93;;;12.20;99.90;;;;;;5037510;28;20210;-53
2021/10/27 16:17:14;;;;;;;13.73;11.63;;;12.20;99.90;;;;;;5021307;28;20220;-52
2021/10/27 16:19:41;;;;;;;17.58;13.10;;;12.20;99.90;;;;;;5021746;28;20270;-49
2021/10/27 16:22:10;;;;;;;15.98;10.98;;;12.30;99.90;;;;;;5030046;28;20399;-53
2021/10/27 16:24:39;;;;;;;18.02;13.32;;;12.20;99.90;;;;;;5024148;28;20360;-51
2021/10/27 16:27:07;;;;;;;18.13;13.85;;;12.10;99.90;;;;;;5026960;28;20228;-50
2021/10/27 16:29:35;;;;;;;16.60;12.63;;;12.10;99.90;;;;;;5026491;28;20283;-55
2021/10/27 16:32:07;;;;;;;23.50;12.63;;;12.00;99.90;;;;;;5039208;28;20227;-55
2021/10/27 16:34:35;;;;;;;15.82;11.20;;;12.10;99.90;;;;;;5036125;28;20206;-50
2021/10/27 16:37:21;;;;;;;21.27;13.25;;;12.10;99.90;;;;;;5033514;28;20230;-52
2021/10/27 16:39:48;;;;;;;14.77;10.82;;;12.10;99.90;;;;;;5030694;28;20499;-54
2021/10/27 16:42:16;;;;;;;22.65;15.25;;;12.00;99.90;;;;;;5025143;28;20265;-54
2021/10/27 16:44:43;;;;;;;20.95;14.07;;;11.80;99.90;;;;;;5032424;28;20402;-55
2021/10/27 16:47:11;;;;;;;23.45;14.77;;;11.80;99.90;;;;;;5027799;28;20453;-53
2021/10/27 16:49:38;;;;;;;20.25;13.63;;;11.80;99.90;;;;;;5037866;28;20210;-55
2021/10/27 16:52:07;;;;;;;19.90;12.90;;;11.70;99.90;;;;;;5017873;28;20247;-55
2021/10/27 16:54:34;;;;;;;22.90;13.15;;;11.70;99.90;;;;;;5015388;28;20256;-52
2021/10/27 16:57:02;;;;;;;22.77;14.13;;;11.50;99.90;;;;;;5011472;28;20246;-51
2021/10/27 16:59:30;;;;;;;20.35;14.57;;;11.30;99.90;;;;;;5008124;28;20200;-51
2021/10/27 17:01:57;;;;;;;19.17;14.38;;;11.20;99.90;;;;;;5013020;28;20251;-51
2021/10/27 17:04:25;;;;;;;23.25;15.73;;;11.20;99.90;;;;;;5013057;28;20213;-53
2021/10/27 17:06:52;;;;;;;25.38;15.43;;;11.10;99.90;;;;;;5008145;28;20258;-52
2021/10/27 17:09:19;;;;;;;28.92;17.80;;;11.10;99.90;;;;;;5008573;28;20217;-51
2021/10/27 17:11:47;;;;;;;27.40;16.20;;;11.00;99.90;;;;;;5013171;28;20227;-51
2021/10/27 17:14:14;;;;;;;28.55;17.70;;;11.10;99.90;;;;;;5011731;28;20207;-51
2021/10/27 17:16:42;;;;;;;33.17;16.48;;;11.20;99.90;;;;;;5009798;28;20232;-52
2021/10/27 17:19:10;;;;;;;24.42;17.45;;;11.30;99.90;;;;;;5010344;28;20299;-51
2021/10/27 17:21:39;;;;;;;28.52;17.23;;;11.20;99.90;;;;;;5009647;28;20227;-50
2021/10/27 17:24:08;;;;;;;25.90;17.90;;;11.20;99.90;;;;;;5011584;28;20510;-50
2021/10/27 17:26:42;;;;;;;28.45;19.13;;;11.10;99.90;;;;;;5015165;28;20242;-52
2021/10/27 17:29:10;;;;;;;28.25;18.20;;;11.10;99.90;;;;;;5030111;28;20215;-54
2021/10/27 17:31:37;;;;;;;22.60;16.85;;;11.00;99.90;;;;;;5034000;28;20246;-52
2021/10/27 17:34:05;;;;;;;26.13;16.70;;;11.00;99.90;;;;;;5015171;28;20377;-50
2021/10/27 17:36:32;;;;;;;28.35;19.38;;;11.00;99.90;;;;;;5012309;28;20266;-53
2021/10/27 17:39:01;;;;;;;22.92;16.92;;;10.90;99.90;;;;;;5030430;28;20229;-53
2021/10/27 17:41:28;;;;;;;27.17;16.88;;;10.90;99.90;;;;;;5029211;28;20214;-53
2021/10/27 17:43:56;;;;;;;31.98;20.33;;;10.90;99.90;;;;;;5030003;28;20406;-52
2021/10/27 17:46:30;;;;;;;27.27;19.23;;;10.80;99.90;;;;;;5032448;28;20234;-52
2021/10/27 17:49:01;;;;;;;32.22;21.40;;;10.60;99.90;;;;;;5031252;28;20201;-49